LGX74P LICC-LFKJ
Flight info
| Callsign | LGX74P |
|---|---|
| Flight time | 1h 12m |
| Altitude | 32000 |
| Route | LIBRO DCT ENEPA DCT ABKON DCT IDEPA DCT POZZO/N0366F140 Q214 TEREZ |
| Aircraft | B738/M-SDE2E3FGHIRWXY/LB1 |
Departure
| Time | 2026-05-07 16:28 |
|---|---|
| Airport | Catania-Fontanarossa Airport (LICC) |
Arrival
| Time | 2026-05-07 17:40 |
|---|---|
| Airport | Ajaccio Napoléon Bonaparte airport (LFKJ) |
| Time | Latitude | Longitude | Altitude | Speed | Heading |
|---|---|---|---|---|---|
| 2026-05-07 16:20 | 37.46888 | 15.06241 | 31 ft | 0 kts | 354° |
| 2026-05-07 16:25 | 37.46899 | 15.06254 | 31 ft | 4 kts | 75° |
| 2026-05-07 16:25 | 37.46869 | 15.06280 | 31 ft | 8 kts | 166° |
| 2026-05-07 16:25 | 37.46817 | 15.06257 | 31 ft | 8 kts | 239° |
| 2026-05-07 16:26 | 37.46807 | 15.06175 | 29 ft | 11 kts | 262° |
| 2026-05-07 16:26 | 37.46796 | 15.06060 | 31 ft | 21 kts | 263° |
| 2026-05-07 16:26 | 37.46778 | 15.05865 | 30 ft | 23 kts | 264° |
| 2026-05-07 16:26 | 37.46768 | 15.05733 | 31 ft | 22 kts | 264° |
| 2026-05-07 16:27 | 37.46723 | 15.05493 | 31 ft | 21 kts | 224° |
| 2026-05-07 16:27 | 37.46603 | 15.05547 | 32 ft | 26 kts | 101° |
| 2026-05-07 16:27 | 37.46636 | 15.06050 | 34 ft | 100 kts | 82° |
| 2026-05-07 16:27 | 37.46729 | 15.07209 | 255 ft | 157 kts | 81° |
| 2026-05-07 16:28 | 37.46755 | 15.08692 | 1164 ft | 172 kts | 90° |
| 2026-05-07 16:28 | 37.46596 | 15.10030 | 2831 ft | 137 kts | 101° |
| 2026-05-07 16:28 | 37.46590 | 15.11103 | 3894 ft | 121 kts | 65° |
| 2026-05-07 16:28 | 37.47301 | 15.11876 | 4209 ft | 160 kts | 20° |
| 2026-05-07 16:29 | 37.48539 | 15.11774 | 4555 ft | 206 kts | 344° |
| 2026-05-07 16:29 | 37.49733 | 15.10576 | 4932 ft | 233 kts | 307° |
| 2026-05-07 16:29 | 37.50448 | 15.08622 | 5223 ft | 256 kts | 286° |
| 2026-05-07 16:29 | 37.50903 | 15.06418 | 5801 ft | 267 kts | 280° |
| 2026-05-07 16:30 | 37.51314 | 15.04122 | 6626 ft | 267 kts | 278° |
| 2026-05-07 16:30 | 37.51721 | 15.01825 | 7538 ft | 269 kts | 280° |
| 2026-05-07 16:30 | 37.52140 | 14.99488 | 8331 ft | 274 kts | 279° |
| 2026-05-07 16:30 | 37.52567 | 14.97155 | 9346 ft | 276 kts | 279° |
| 2026-05-07 16:31 | 37.53010 | 14.94749 | 9759 ft | 298 kts | 279° |
| 2026-05-07 16:31 | 37.53507 | 14.92057 | 9960 ft | 324 kts | 279° |
| 2026-05-07 16:31 | 37.54040 | 14.89211 | 10240 ft | 343 kts | 281° |
| 2026-05-07 16:31 | 37.54591 | 14.86300 | 10837 ft | 348 kts | 280° |
| 2026-05-07 16:32 | 37.55157 | 14.83336 | 11635 ft | 349 kts | 280° |
| 2026-05-07 16:32 | 37.55728 | 14.80340 | 12297 ft | 354 kts | 280° |
| 2026-05-07 16:32 | 37.56304 | 14.77305 | 13003 ft | 358 kts | 281° |
| 2026-05-07 16:32 | 37.56885 | 14.74242 | 13759 ft | 361 kts | 280° |
| 2026-05-07 16:33 | 37.57469 | 14.71158 | 14441 ft | 363 kts | 281° |
| 2026-05-07 16:33 | 37.58054 | 14.68059 | 15141 ft | 364 kts | 281° |
| 2026-05-07 16:33 | 37.58640 | 14.64954 | 15836 ft | 365 kts | 281° |
| 2026-05-07 16:33 | 37.59229 | 14.61827 | 16489 ft | 368 kts | 281° |
| 2026-05-07 16:34 | 37.59821 | 14.58677 | 17115 ft | 371 kts | 281° |
| 2026-05-07 16:34 | 37.60417 | 14.55500 | 17712 ft | 374 kts | 281° |
| 2026-05-07 16:34 | 37.61015 | 14.52315 | 18369 ft | 373 kts | 281° |
| 2026-05-07 16:34 | 37.61612 | 14.49117 | 18910 ft | 376 kts | 281° |
| 2026-05-07 16:35 | 37.62267 | 14.45904 | 19381 ft | 381 kts | 285° |
| 2026-05-07 16:35 | 37.63224 | 14.42764 | 19877 ft | 386 kts | 289° |
| 2026-05-07 16:35 | 37.64274 | 14.39629 | 20404 ft | 389 kts | 289° |
| 2026-05-07 16:35 | 37.65337 | 14.36484 | 20912 ft | 391 kts | 289° |
| 2026-05-07 16:36 | 37.66402 | 14.33310 | 21391 ft | 394 kts | 289° |
| 2026-05-07 16:36 | 37.67466 | 14.30102 | 21823 ft | 398 kts | 289° |
| 2026-05-07 16:36 | 37.68530 | 14.26870 | 22303 ft | 400 kts | 288° |
| 2026-05-07 16:36 | 37.69593 | 14.23622 | 22787 ft | 402 kts | 288° |
| 2026-05-07 16:37 | 37.70662 | 14.20347 | 23217 ft | 405 kts | 288° |
| 2026-05-07 16:37 | 37.71738 | 14.17041 | 23586 ft | 409 kts | 288° |
| 2026-05-07 16:37 | 37.72804 | 14.13761 | 23992 ft | 409 kts | 288° |
| 2026-05-07 16:37 | 37.73886 | 14.10434 | 24423 ft | 409 kts | 288° |
| 2026-05-07 16:38 | 37.74968 | 14.07104 | 24809 ft | 411 kts | 288° |
| 2026-05-07 16:38 | 37.76053 | 14.03757 | 25162 ft | 413 kts | 288° |
| 2026-05-07 16:38 | 37.77314 | 14.00475 | 25516 ft | 419 kts | 295° |
| 2026-05-07 16:38 | 37.78945 | 13.97387 | 25874 ft | 427 kts | 303° |
| 2026-05-07 16:39 | 37.80897 | 13.94519 | 26196 ft | 432 kts | 304° |
| 2026-05-07 16:39 | 37.82896 | 13.91657 | 26538 ft | 435 kts | 305° |
| 2026-05-07 16:39 | 37.84743 | 13.89017 | 26818 ft | 437 kts | 305° |
| 2026-05-07 16:39 | 37.86760 | 13.86122 | 27171 ft | 439 kts | 304° |
| 2026-05-07 16:40 | 37.88779 | 13.83214 | 27490 ft | 442 kts | 304° |
| 2026-05-07 16:40 | 37.90810 | 13.80273 | 27746 ft | 445 kts | 304° |
| 2026-05-07 16:40 | 37.92844 | 13.77320 | 28097 ft | 445 kts | 304° |
| 2026-05-07 16:40 | 37.94875 | 13.74364 | 28553 ft | 443 kts | 304° |
| 2026-05-07 16:41 | 37.96892 | 13.71428 | 29049 ft | 441 kts | 303° |
| 2026-05-07 16:41 | 37.98903 | 13.68492 | 29470 ft | 441 kts | 303° |
| 2026-05-07 16:41 | 38.00909 | 13.65557 | 29824 ft | 442 kts | 303° |
| 2026-05-07 16:41 | 38.02924 | 13.62608 | 30197 ft | 441 kts | 303° |
| 2026-05-07 16:42 | 38.04922 | 13.59683 | 30708 ft | 436 kts | 303° |
| 2026-05-07 16:42 | 38.06870 | 13.56835 | 31292 ft | 429 kts | 302° |
| 2026-05-07 16:42 | 38.08815 | 13.53986 | 31776 ft | 426 kts | 302° |
| 2026-05-07 16:43 | 38.12728 | 13.48222 | 31874 ft | 436 kts | 302° |
| 2026-05-07 16:43 | 38.16723 | 13.42324 | 31858 ft | 443 kts | 302° |
| 2026-05-07 16:44 | 38.20744 | 13.36399 | 31854 ft | 443 kts | 302° |
| 2026-05-07 16:44 | 38.24767 | 13.30461 | 31855 ft | 443 kts | 302° |
| 2026-05-07 16:45 | 38.28780 | 13.24525 | 31852 ft | 442 kts | 302° |
| 2026-05-07 16:45 | 38.32783 | 13.18590 | 31855 ft | 442 kts | 302° |
| 2026-05-07 16:46 | 38.36781 | 13.12651 | 31875 ft | 441 kts | 302° |
| 2026-05-07 16:46 | 38.40775 | 13.06705 | 31861 ft | 441 kts | 301° |
| 2026-05-07 16:47 | 38.44760 | 13.00761 | 31860 ft | 441 kts | 301° |
| 2026-05-07 16:47 | 38.48067 | 12.95821 | 31856 ft | 440 kts | 301° |
| 2026-05-07 16:48 | 38.52043 | 12.89874 | 31866 ft | 440 kts | 301° |
| 2026-05-07 16:48 | 38.56655 | 12.82959 | 31866 ft | 440 kts | 301° |
| 2026-05-07 16:49 | 38.60618 | 12.77005 | 31890 ft | 440 kts | 301° |
| 2026-05-07 16:49 | 38.63940 | 12.72005 | 31875 ft | 440 kts | 301° |
| 2026-05-07 16:50 | 38.67898 | 12.66039 | 31877 ft | 440 kts | 301° |
| 2026-05-07 16:50 | 38.71846 | 12.60077 | 31872 ft | 438 kts | 301° |
| 2026-05-07 16:51 | 38.75777 | 12.54130 | 31870 ft | 437 kts | 301° |
| 2026-05-07 16:51 | 38.79666 | 12.48235 | 31871 ft | 436 kts | 301° |
| 2026-05-07 16:52 | 38.83580 | 12.42289 | 31874 ft | 436 kts | 300° |
| 2026-05-07 16:52 | 38.87484 | 12.36347 | 31883 ft | 436 kts | 300° |
| 2026-05-07 16:53 | 38.91389 | 12.30394 | 31885 ft | 436 kts | 300° |
| 2026-05-07 16:53 | 38.95288 | 12.24439 | 31882 ft | 435 kts | 300° |
| 2026-05-07 16:54 | 38.99175 | 12.18493 | 31879 ft | 434 kts | 300° |
| 2026-05-07 16:54 | 39.03050 | 12.12553 | 31881 ft | 433 kts | 300° |
| 2026-05-07 16:55 | 39.06916 | 12.06613 | 31884 ft | 433 kts | 300° |
| 2026-05-07 16:55 | 39.10775 | 12.00673 | 31900 ft | 433 kts | 300° |
| 2026-05-07 16:56 | 39.14640 | 11.94713 | 31902 ft | 433 kts | 300° |
| 2026-05-07 16:56 | 39.20430 | 11.85766 | 31918 ft | 433 kts | 301° |
| 2026-05-07 16:57 | 39.24292 | 11.79784 | 31900 ft | 434 kts | 300° |
| 2026-05-07 16:57 | 39.28151 | 11.73793 | 31907 ft | 434 kts | 300° |
| 2026-05-07 16:58 | 39.32009 | 11.67795 | 31906 ft | 434 kts | 300° |
| 2026-05-07 16:58 | 39.35846 | 11.61816 | 31911 ft | 434 kts | 301° |
| 2026-05-07 16:59 | 39.39697 | 11.55808 | 31909 ft | 434 kts | 301° |
| 2026-05-07 16:59 | 39.43538 | 11.49802 | 31909 ft | 433 kts | 301° |
| 2026-05-07 17:00 | 39.47560 | 11.43951 | 31920 ft | 444 kts | 310° |
| 2026-05-07 17:00 | 39.52322 | 11.38823 | 31916 ft | 446 kts | 311° |
| 2026-05-07 17:01 | 39.57088 | 11.33687 | 31918 ft | 445 kts | 311° |
| 2026-05-07 17:01 | 39.61831 | 11.28511 | 31934 ft | 446 kts | 311° |
| 2026-05-07 17:02 | 39.66571 | 11.23299 | 31931 ft | 447 kts | 311° |
| 2026-05-07 17:02 | 39.71319 | 11.18064 | 31947 ft | 448 kts | 311° |
| 2026-05-07 17:03 | 39.76062 | 11.12822 | 31930 ft | 448 kts | 312° |
| 2026-05-07 17:03 | 39.80816 | 11.07561 | 31923 ft | 448 kts | 312° |
| 2026-05-07 17:04 | 39.85564 | 11.02297 | 31926 ft | 448 kts | 312° |
| 2026-05-07 17:04 | 39.90318 | 10.97017 | 31935 ft | 449 kts | 312° |
| 2026-05-07 17:05 | 39.95061 | 10.91738 | 31932 ft | 448 kts | 312° |
| 2026-05-07 17:05 | 39.99809 | 10.86446 | 31942 ft | 450 kts | 313° |
| 2026-05-07 17:06 | 40.04570 | 10.81124 | 31939 ft | 451 kts | 313° |
| 2026-05-07 17:06 | 40.09336 | 10.75790 | 31939 ft | 451 kts | 313° |
| 2026-05-07 17:07 | 40.14097 | 10.70450 | 31939 ft | 452 kts | 313° |
| 2026-05-07 17:07 | 40.18865 | 10.65094 | 31940 ft | 452 kts | 312° |
| 2026-05-07 17:08 | 40.23599 | 10.59764 | 31939 ft | 452 kts | 312° |
| 2026-05-07 17:08 | 40.28393 | 10.54356 | 31953 ft | 453 kts | 312° |
| 2026-05-07 17:09 | 40.33143 | 10.48988 | 31951 ft | 455 kts | 312° |
| 2026-05-07 17:09 | 40.37937 | 10.43559 | 31950 ft | 456 kts | 312° |
| 2026-05-07 17:10 | 40.42735 | 10.38116 | 31945 ft | 456 kts | 312° |
| 2026-05-07 17:10 | 40.47533 | 10.32662 | 31954 ft | 456 kts | 312° |
| 2026-05-07 17:11 | 40.52330 | 10.27199 | 31949 ft | 456 kts | 312° |
| 2026-05-07 17:11 | 40.57125 | 10.21728 | 31953 ft | 456 kts | 312° |
| 2026-05-07 17:12 | 40.61917 | 10.16248 | 31959 ft | 457 kts | 312° |
| 2026-05-07 17:12 | 40.66709 | 10.10758 | 31951 ft | 457 kts | 312° |
| 2026-05-07 17:13 | 40.71505 | 10.05251 | 31966 ft | 457 kts | 312° |
| 2026-05-07 17:13 | 40.76302 | 9.99733 | 31956 ft | 457 kts | 312° |
| 2026-05-07 17:14 | 40.81096 | 9.94208 | 31956 ft | 457 kts | 312° |
| 2026-05-07 17:14 | 40.85880 | 9.88684 | 31773 ft | 457 kts | 312° |
| 2026-05-07 17:15 | 40.88278 | 9.85909 | 31027 ft | 456 kts | 312° |
| 2026-05-07 17:15 | 40.90661 | 9.83152 | 30301 ft | 455 kts | 313° |
| 2026-05-07 17:15 | 40.93045 | 9.80388 | 29421 ft | 456 kts | 313° |
| 2026-05-07 17:15 | 40.95433 | 9.77616 | 28449 ft | 457 kts | 313° |
| 2026-05-07 17:16 | 40.97823 | 9.74839 | 27503 ft | 457 kts | 314° |
| 2026-05-07 17:16 | 41.00217 | 9.72056 | 26514 ft | 458 kts | 314° |
| 2026-05-07 17:16 | 41.02586 | 9.69298 | 25607 ft | 458 kts | 315° |
| 2026-05-07 17:16 | 41.04992 | 9.66498 | 24917 ft | 452 kts | 315° |
| 2026-05-07 17:17 | 41.07315 | 9.63792 | 24227 ft | 448 kts | 315° |
| 2026-05-07 17:17 | 41.09642 | 9.61078 | 23507 ft | 444 kts | 316° |
| 2026-05-07 17:17 | 41.11953 | 9.58380 | 22697 ft | 440 kts | 316° |
| 2026-05-07 17:17 | 41.14238 | 9.55709 | 21959 ft | 435 kts | 316° |
| 2026-05-07 17:18 | 41.16497 | 9.53065 | 21251 ft | 431 kts | 316° |
| 2026-05-07 17:18 | 41.18733 | 9.50446 | 20570 ft | 426 kts | 316° |
| 2026-05-07 17:18 | 41.20944 | 9.47853 | 19898 ft | 422 kts | 316° |
| 2026-05-07 17:18 | 41.23137 | 9.45278 | 19243 ft | 419 kts | 315° |
| 2026-05-07 17:19 | 41.25319 | 9.42714 | 18543 ft | 418 kts | 316° |
| 2026-05-07 17:19 | 41.27493 | 9.40157 | 17796 ft | 416 kts | 316° |
| 2026-05-07 17:19 | 41.29652 | 9.37613 | 17078 ft | 413 kts | 316° |
| 2026-05-07 17:19 | 41.31792 | 9.35092 | 16391 ft | 409 kts | 316° |
| 2026-05-07 17:20 | 41.33917 | 9.32587 | 15718 ft | 406 kts | 316° |
| 2026-05-07 17:20 | 41.36025 | 9.30098 | 15060 ft | 403 kts | 316° |
| 2026-05-07 17:20 | 41.38117 | 9.27626 | 14404 ft | 400 kts | 316° |
| 2026-05-07 17:20 | 41.40190 | 9.25175 | 13726 ft | 398 kts | 317° |
| 2026-05-07 17:21 | 41.42255 | 9.22731 | 13008 ft | 395 kts | 317° |
| 2026-05-07 17:21 | 41.44302 | 9.20306 | 12338 ft | 392 kts | 317° |
| 2026-05-07 17:21 | 41.46334 | 9.17896 | 11668 ft | 389 kts | 317° |
| 2026-05-07 17:21 | 41.48340 | 9.15515 | 11200 ft | 382 kts | 317° |
| 2026-05-07 17:22 | 41.50283 | 9.13211 | 11058 ft | 366 kts | 317° |
| 2026-05-07 17:22 | 41.52153 | 9.10991 | 10881 ft | 353 kts | 317° |
| 2026-05-07 17:22 | 41.53941 | 9.08864 | 10662 ft | 346 kts | 317° |
| 2026-05-07 17:22 | 41.55749 | 9.06710 | 10450 ft | 359 kts | 317° |
| 2026-05-07 17:23 | 41.57685 | 9.04398 | 10225 ft | 383 kts | 317° |
| 2026-05-07 17:23 | 41.59676 | 9.02020 | 9985 ft | 386 kts | 317° |
| 2026-05-07 17:23 | 41.61682 | 8.99627 | 9737 ft | 386 kts | 317° |
| 2026-05-07 17:23 | 41.63678 | 8.97244 | 9469 ft | 384 kts | 317° |
| 2026-05-07 17:24 | 41.65662 | 8.94874 | 9207 ft | 381 kts | 317° |
| 2026-05-07 17:24 | 41.67633 | 8.92516 | 8642 ft | 380 kts | 317° |
| 2026-05-07 17:24 | 41.69587 | 8.90177 | 8042 ft | 374 kts | 317° |
| 2026-05-07 17:24 | 41.71517 | 8.87863 | 7416 ft | 371 kts | 317° |
| 2026-05-07 17:25 | 41.73432 | 8.85567 | 6781 ft | 368 kts | 317° |
| 2026-05-07 17:25 | 41.75331 | 8.83286 | 6110 ft | 366 kts | 317° |
| 2026-05-07 17:25 | 41.77211 | 8.81026 | 5659 ft | 355 kts | 317° |
| 2026-05-07 17:25 | 41.78979 | 8.78902 | 5509 ft | 328 kts | 318° |
| 2026-05-07 17:26 | 41.80616 | 8.76931 | 5372 ft | 306 kts | 317° |
| 2026-05-07 17:26 | 41.82160 | 8.75072 | 5145 ft | 290 kts | 318° |
| 2026-05-07 17:26 | 41.83616 | 8.73317 | 5024 ft | 273 kts | 318° |
| 2026-05-07 17:26 | 41.84992 | 8.71657 | 4965 ft | 261 kts | 317° |
| 2026-05-07 17:27 | 41.86321 | 8.70053 | 4874 ft | 253 kts | 317° |
| 2026-05-07 17:27 | 41.87607 | 8.68501 | 4778 ft | 245 kts | 317° |
| 2026-05-07 17:27 | 41.88847 | 8.67003 | 4706 ft | 233 kts | 316° |
| 2026-05-07 17:27 | 41.90006 | 8.65604 | 4612 ft | 221 kts | 316° |
| 2026-05-07 17:28 | 41.91110 | 8.64271 | 4562 ft | 208 kts | 317° |
| 2026-05-07 17:28 | 41.92176 | 8.62979 | 4505 ft | 206 kts | 317° |
| 2026-05-07 17:28 | 41.93211 | 8.61726 | 4432 ft | 195 kts | 317° |
| 2026-05-07 17:28 | 41.94190 | 8.60541 | 4351 ft | 185 kts | 316° |
| 2026-05-07 17:29 | 41.95143 | 8.59388 | 4313 ft | 184 kts | 316° |
| 2026-05-07 17:29 | 41.96092 | 8.58238 | 4248 ft | 182 kts | 317° |
| 2026-05-07 17:29 | 41.97143 | 8.57331 | 4104 ft | 182 kts | 349° |
| 2026-05-07 17:29 | 41.98347 | 8.57603 | 3989 ft | 178 kts | 34° |
| 2026-05-07 17:30 | 41.99119 | 8.58869 | 3835 ft | 178 kts | 68° |
| 2026-05-07 17:30 | 41.99544 | 8.60444 | 3659 ft | 180 kts | 73° |
| 2026-05-07 17:30 | 41.99926 | 8.62029 | 3454 ft | 176 kts | 73° |
| 2026-05-07 17:30 | 42.00298 | 8.63571 | 3255 ft | 171 kts | 73° |
| 2026-05-07 17:31 | 42.00662 | 8.65077 | 3094 ft | 169 kts | 72° |
| 2026-05-07 17:31 | 42.00804 | 8.66657 | 3018 ft | 174 kts | 101° |
| 2026-05-07 17:31 | 42.00567 | 8.68246 | 2994 ft | 173 kts | 100° |
| 2026-05-07 17:31 | 42.00358 | 8.69820 | 2982 ft | 167 kts | 100° |
| 2026-05-07 17:32 | 42.00168 | 8.71272 | 2982 ft | 151 kts | 100° |
| 2026-05-07 17:32 | 41.99980 | 8.72710 | 3013 ft | 161 kts | 100° |
| 2026-05-07 17:32 | 41.99782 | 8.74221 | 2808 ft | 162 kts | 100° |
| 2026-05-07 17:32 | 41.99653 | 8.75210 | 2623 ft | 155 kts | 100° |
| 2026-05-07 17:33 | 41.99414 | 8.77033 | 2300 ft | 147 kts | 100° |
| 2026-05-07 17:33 | 41.99238 | 8.78375 | 2054 ft | 145 kts | 101° |
| 2026-05-07 17:33 | 41.99062 | 8.79718 | 1835 ft | 147 kts | 101° |
| 2026-05-07 17:33 | 41.98837 | 8.81054 | 1592 ft | 146 kts | 111° |
| 2026-05-07 17:34 | 41.98265 | 8.82140 | 1359 ft | 141 kts | 143° |
| 2026-05-07 17:34 | 41.97390 | 8.82703 | 1119 ft | 141 kts | 169° |
| 2026-05-07 17:34 | 41.96745 | 8.82760 | 961 ft | 141 kts | 186° |
| 2026-05-07 17:34 | 41.95795 | 8.82418 | 737 ft | 142 kts | 205° |
| 2026-05-07 17:35 | 41.94914 | 8.81817 | 557 ft | 141 kts | 208° |
| 2026-05-07 17:35 | 41.94028 | 8.81248 | 349 ft | 142 kts | 206° |
| 2026-05-07 17:35 | 41.93113 | 8.80700 | 100 ft | 145 kts | 207° |
| 2026-05-07 17:35 | 41.92237 | 8.80149 | 74 ft | 134 kts | 210° |
| 2026-05-07 17:36 | 41.91341 | 8.79416 | 638 ft | 164 kts | 217° |
| 2026-05-07 17:36 | 41.90715 | 8.78168 | 1026 ft | 174 kts | 258° |
| 2026-05-07 17:36 | 41.90978 | 8.76499 | 1107 ft | 195 kts | 303° |
| 2026-05-07 17:36 | 41.91958 | 8.75204 | 1131 ft | 200 kts | 327° |
| 2026-05-07 17:37 | 41.93180 | 8.74713 | 1144 ft | 174 kts | 358° |
| 2026-05-07 17:37 | 41.94307 | 8.75010 | 1028 ft | 155 kts | 21° |
| 2026-05-07 17:37 | 41.95248 | 8.75589 | 923 ft | 145 kts | 25° |
| 2026-05-07 17:37 | 41.96114 | 8.76230 | 925 ft | 139 kts | 31° |
| 2026-05-07 17:38 | 41.96903 | 8.76974 | 955 ft | 143 kts | 41° |
| 2026-05-07 17:38 | 41.97368 | 8.78183 | 912 ft | 158 kts | 88° |
| 2026-05-07 17:38 | 41.96996 | 8.79547 | 933 ft | 164 kts | 132° |
| 2026-05-07 17:38 | 41.96142 | 8.80648 | 814 ft | 178 kts | 145° |
| 2026-05-07 17:39 | 41.95046 | 8.81285 | 608 ft | 163 kts | 166° |
| 2026-05-07 17:39 | 41.94015 | 8.81235 | 370 ft | 146 kts | 201° |
| 2026-05-07 17:39 | 41.93090 | 8.80679 | 88 ft | 148 kts | 207° |
| 2026-05-07 17:39 | 41.92204 | 8.80126 | 18 ft | 123 kts | 204° |
| 2026-05-07 17:40 | 41.91568 | 8.79730 | 17 ft | 79 kts | 203° |
| 2026-05-07 17:40 | 41.91257 | 8.79473 | 21 ft | 22 kts | 264° |
| 2026-05-07 17:40 | 41.91366 | 8.79354 | 28 ft | 21 kts | 341° |
| 2026-05-07 17:40 | 41.91505 | 8.79363 | 25 ft | 20 kts | 25° |
| 2026-05-07 17:41 | 41.91632 | 8.79440 | 25 ft | 20 kts | 23° |
| 2026-05-07 17:41 | 41.91754 | 8.79515 | 25 ft | 19 kts | 24° |
| 2026-05-07 17:41 | 41.91881 | 8.79546 | 25 ft | 18 kts | 351° |
| 2026-05-07 17:41 | 41.91908 | 8.79538 | 29 ft | 0 kts | 347° |